createdAt,value
2022-12-25T00:02:05.191Z,97023.81
2022-12-25T00:04:31.596Z,97022.94
2022-12-25T00:06:59.478Z,97026.28
2022-12-25T00:09:29.071Z,97026.28
2022-12-25T00:11:56.562Z,97016.06
2022-12-25T00:14:23.984Z,97014.34
2022-12-25T00:16:50.473Z,97010.91
2022-12-25T00:19:16.887Z,97010.97
2022-12-25T00:21:43.331Z,97010.94
2022-12-25T00:24:09.848Z,97012.56
2022-12-25T00:26:36.301Z,97011.69
2022-12-25T00:29:02.652Z,97009.94
2022-12-25T00:31:29.217Z,97009.03
2022-12-25T00:33:56.758Z,97007.28
2022-12-25T00:36:23.547Z,97003.88
2022-12-25T00:38:49.940Z,96999.59
2022-12-25T00:41:39.200Z,96996.16
2022-12-25T00:44:06.600Z,96997.69
2022-12-25T00:46:33.124Z,97007.94
2022-12-25T00:49:02.651Z,97007.91
2022-12-25T00:51:29.225Z,97013.88
2022-12-25T00:53:55.598Z,97004.59
2022-12-25T00:56:21.997Z,97015.56
2022-12-25T00:58:48.642Z,97005.38
2022-12-25T01:01:15.275Z,97005.38
2022-12-25T01:03:41.833Z,97004.41
2022-12-25T01:06:12.651Z,97007.84
2022-12-25T01:08:59.950Z,97007.91
2022-12-25T01:11:26.910Z,97018.13
2022-12-25T01:13:53.287Z,97027.44
2022-12-25T01:16:19.775Z,97024.03
2022-12-25T01:18:46.630Z,97026.66
2022-12-25T01:21:20.906Z,97031.81
2022-12-25T01:23:50.446Z,97031.81
2022-12-25T01:26:18.100Z,97039.41
2022-12-25T01:28:44.614Z,97039.41
2022-12-25T01:31:13.988Z,97041.91
2022-12-25T01:33:42.347Z,97043.53
2022-12-25T01:36:28.987Z,97050.22
2022-12-25T01:38:55.593Z,97054.44
2022-12-25T01:41:24.497Z,97048.41
2022-12-25T01:44:14.165Z,97045.94
2022-12-25T01:46:41.246Z,97043.38
2022-12-25T01:49:22.514Z,97046.72
2022-12-25T01:52:18.890Z,97031.25
2022-12-25T01:54:59.812Z,97032.28
2022-12-25T01:57:30.635Z,97030.66
2022-12-25T01:59:58.234Z,97039.84
2022-12-25T02:02:25.561Z,97043.09
2022-12-25T02:05:30.000Z,97042.19
2022-12-25T02:08:01.884Z,97040.47
2022-12-25T02:10:28.567Z,97033.53
2022-12-25T02:12:55.381Z,97032.72
2022-12-25T02:15:26.916Z,97032.63
2022-12-25T02:18:12.060Z,97042.75
2022-12-25T02:21:03.185Z,97036.03
2022-12-25T02:23:42.107Z,97033.41
2022-12-25T02:26:47.824Z,97032.56
2022-12-25T02:29:25.172Z,97027.47
2022-12-25T02:32:07.936Z,97034.16
2022-12-25T02:34:45.054Z,97037.56
2022-12-25T02:37:56.528Z,97035.88
2022-12-25T02:40:40.001Z,97035.03
2022-12-25T02:43:33.039Z,97038.47
2022-12-25T02:46:22.470Z,97031.34
2022-12-25T02:49:15.320Z,97035.63
2022-12-25T02:52:04.049Z,97031.31
2022-12-25T02:54:53.859Z,97034.66
2022-12-25T02:57:43.109Z,97032.88
2022-12-25T03:00:29.380Z,97028.59
2022-12-25T03:03:17.793Z,97027.75
2022-12-25T03:06:04.037Z,97037.91
2022-12-25T03:08:36.811Z,97025.09
2022-12-25T03:11:25.362Z,97025.88
2022-12-25T03:13:55.565Z,97027.53
2022-12-25T03:16:41.573Z,97026.72
2022-12-25T03:19:27.125Z,97021.34
2022-12-25T03:22:15.552Z,97022.06
2022-12-25T03:25:00.872Z,97015.28
2022-12-25T03:27:31.918Z,97010.16
2022-12-25T03:30:17.136Z,97003.44
2022-12-25T03:32:58.623Z,96995.03
2022-12-25T03:35:46.495Z,97009.44
2022-12-25T03:38:49.967Z,97013.56
2022-12-25T03:42:02.343Z,97000.78
2022-12-25T03:45:18.578Z,97007.59
2022-12-25T03:48:07.069Z,97008.25
2022-12-25T03:50:57.559Z,97012.41
2022-12-25T03:53:49.995Z,97014.03
2022-12-25T03:56:36.045Z,97019.06
2022-12-25T03:59:24.078Z,97000.28
2022-12-25T04:02:10.440Z,97005.38
2022-12-25T04:04:55.928Z,96997.59
2022-12-25T04:07:40.639Z,97004.41
2022-12-25T04:10:26.495Z,96998.16
2022-12-25T04:13:11.871Z,97001.47
2022-12-25T04:15:56.683Z,97004.88
2022-12-25T04:18:41.520Z,96996.31
2022-12-25T04:21:26.461Z,96993.78
2022-12-25T04:24:11.209Z,96995.44
2022-12-25T04:26:55.934Z,96990.31
2022-12-25T04:29:40.720Z,96995.28
2022-12-25T04:32:25.576Z,96993.44
2022-12-25T04:35:10.815Z,96989.16
2022-12-25T04:37:37.187Z,96993.16
2022-12-25T04:40:05.270Z,96993.84
2022-12-25T04:42:31.705Z,96987.09
2022-12-25T04:44:58.104Z,96993.84
2022-12-25T04:47:24.494Z,96993.00
2022-12-25T04:49:50.984Z,96993.78
2022-12-25T04:52:17.375Z,97004.81
2022-12-25T04:54:43.816Z,97007.25
2022-12-25T04:57:10.205Z,97013.97
2022-12-25T04:59:36.570Z,97013.13
2022-12-25T05:02:03.104Z,96995.28
2022-12-25T05:04:29.592Z,96986.91
2022-12-25T05:06:55.989Z,96980.09
2022-12-25T05:09:22.529Z,96993.47
2022-12-25T05:11:49.067Z,96997.69
2022-12-25T05:14:15.718Z,96997.50
2022-12-25T05:16:42.250Z,96998.44
2022-12-25T05:19:09.629Z,97006.72
2022-12-25T05:21:36.332Z,97002.41
2022-12-25T05:24:02.737Z,97008.19
2022-12-25T05:26:29.177Z,97003.97
2022-12-25T05:28:56.534Z,97009.84
2022-12-25T05:31:23.214Z,97008.06
2022-12-25T05:33:51.448Z,97004.66
2022-12-25T05:36:18.131Z,97006.25
2022-12-25T05:38:44.583Z,97011.44
2022-12-25T05:41:11.052Z,97014.88
2022-12-25T05:43:37.469Z,97001.31
2022-12-25T05:46:09.177Z,97006.41
2022-12-25T05:48:37.428Z,97010.66
2022-12-25T05:51:12.539Z,97003.09
2022-12-25T05:53:39.435Z,97000.63
2022-12-25T05:56:07.987Z,96994.75
2022-12-25T05:58:35.584Z,96998.09
2022-12-25T06:01:02.497Z,97004.97
2022-12-25T06:03:29.443Z,97003.34
2022-12-25T06:05:55.913Z,97004.31
2022-12-25T06:08:22.271Z,97003.53
2022-12-25T06:10:49.359Z,97012.94
2022-12-25T06:13:15.689Z,97015.59
2022-12-25T06:15:42.359Z,97016.47
2022-12-25T06:18:08.880Z,97020.75
2022-12-25T06:20:35.283Z,97015.66
2022-12-25T06:23:02.162Z,97018.19
2022-12-25T06:25:28.656Z,97012.44
2022-12-25T06:27:55.150Z,97004.00
2022-12-25T06:30:21.644Z,97010.81
2022-12-25T06:32:48.156Z,97010.78
2022-12-25T06:35:14.566Z,97009.31
2022-12-25T06:37:40.967Z,97008.47
2022-12-25T06:40:08.000Z,97005.00
2022-12-25T06:42:34.422Z,97010.06
2022-12-25T06:45:00.787Z,97005.84
2022-12-25T06:47:27.201Z,97007.53
2022-12-25T06:49:53.575Z,96999.97
2022-12-25T06:52:20.089Z,97010.19
2022-12-25T06:54:47.375Z,97012.72
2022-12-25T06:57:13.790Z,97014.47
2022-12-25T06:59:40.290Z,97022.22
2022-12-25T07:02:21.636Z,97018.91
2022-12-25T07:04:48.581Z,97019.03
2022-12-25T07:07:15.297Z,97019.97
2022-12-25T07:09:42.570Z,97014.81
2022-12-25T07:12:20.808Z,97026.16
2022-12-25T07:14:49.801Z,97032.84
2022-12-25T07:17:17.331Z,97025.97
2022-12-25T07:19:45.307Z,97028.50
2022-12-25T07:22:12.803Z,97027.72
2022-12-25T07:24:39.336Z,97021.75
2022-12-25T07:27:06.378Z,97018.41
2022-12-25T07:29:32.732Z,97025.25
2022-12-25T07:31:59.214Z,97025.34
2022-12-25T07:34:25.908Z,97022.78
2022-12-25T07:36:54.636Z,97020.19
2022-12-25T07:39:21.005Z,97024.56
2022-12-25T07:41:47.406Z,97024.63
2022-12-25T07:44:13.781Z,97028.03
2022-12-25T07:46:40.277Z,97030.53
2022-12-25T07:49:06.689Z,97037.53
2022-12-25T07:51:33.275Z,97040.81
2022-12-25T07:53:59.626Z,97045.03
2022-12-25T07:56:26.132Z,97036.59
2022-12-25T07:58:52.622Z,97033.28
2022-12-25T08:01:22.692Z,97030.81
2022-12-25T08:04:02.780Z,97033.53
2022-12-25T08:06:34.893Z,97029.34
2022-12-25T08:09:10.324Z,97025.25
2022-12-25T08:11:37.640Z,97033.75
2022-12-25T08:14:08.508Z,97030.38
2022-12-25T08:16:35.457Z,97037.31
2022-12-25T08:19:01.943Z,97033.91
2022-12-25T08:21:28.415Z,97023.69
2022-12-25T08:23:54.829Z,97023.72
2022-12-25T08:26:23.049Z,97026.34
2022-12-25T08:28:50.460Z,97028.88
2022-12-25T08:31:23.002Z,97022.16
2022-12-25T08:33:51.751Z,97026.38
2022-12-25T08:36:18.248Z,97026.47
2022-12-25T08:38:45.653Z,97024.94
2022-12-25T08:41:15.048Z,97023.34
2022-12-25T08:43:41.723Z,97024.22
2022-12-25T08:46:08.551Z,97014.03
2022-12-25T08:48:35.463Z,97008.09
2022-12-25T08:51:02.525Z,97003.97
2022-12-25T08:53:29.056Z,97000.59
2022-12-25T08:56:06.430Z,96993.03
2022-12-25T08:58:33.521Z,96997.34
2022-12-25T09:01:00.595Z,96992.34
2022-12-25T09:03:27.651Z,96997.75
2022-12-25T09:05:54.803Z,96992.00
2022-12-25T09:08:21.774Z,96983.69
2022-12-25T09:10:49.005Z,96978.75
2022-12-25T09:13:15.675Z,96980.50
2022-12-25T09:15:42.105Z,96984.91
2022-12-25T09:18:08.489Z,96983.28
2022-12-25T09:20:34.854Z,96984.13
2022-12-25T09:23:01.210Z,96997.88
2022-12-25T09:25:27.786Z,97008.16
2022-12-25T09:27:56.646Z,96997.91
2022-12-25T09:30:23.167Z,97010.59
2022-12-25T09:32:49.626Z,97014.84
2022-12-25T09:35:18.384Z,97011.38
2022-12-25T09:37:45.292Z,97013.06
2022-12-25T09:40:21.124Z,97000.47
2022-12-25T09:42:49.368Z,96991.19
2022-12-25T09:45:25.970Z,96986.03
2022-12-25T09:47:56.799Z,96984.03
2022-12-25T09:50:38.089Z,96994.34
2022-12-25T09:53:12.585Z,96992.88
2022-12-25T09:55:48.391Z,96993.97
2022-12-25T09:58:14.819Z,96989.00
2022-12-25T10:00:46.737Z,96983.13
2022-12-25T10:03:44.077Z,96993.41
2022-12-25T10:06:20.687Z,96992.63
2022-12-25T10:09:11.270Z,96984.94
2022-12-25T10:11:49.902Z,96982.44
2022-12-25T10:14:23.607Z,96980.94
2022-12-25T10:17:02.121Z,96981.78
2022-12-25T10:19:56.456Z,96982.91
2022-12-25T10:22:42.379Z,96974.44
2022-12-25T10:25:17.241Z,96965.91
2022-12-25T10:27:43.766Z,96982.03
2022-12-25T10:30:15.844Z,96957.50
2022-12-25T10:32:43.290Z,96966.00
2022-12-25T10:35:18.624Z,96962.72
2022-12-25T10:37:52.594Z,96953.53
2022-12-25T10:40:39.678Z,96953.56
2022-12-25T10:43:16.443Z,96939.25
2022-12-25T10:45:47.292Z,96925.63
2022-12-25T10:48:25.280Z,96919.69
2022-12-25T10:50:53.015Z,96924.03
2022-12-25T10:53:26.388Z,96907.22
2022-12-25T10:55:58.420Z,96892.75
2022-12-25T10:58:25.440Z,96894.44
2022-12-25T11:00:59.036Z,96886.88
2022-12-25T11:03:30.443Z,96892.03
2022-12-25T11:05:57.952Z,96878.56
2022-12-25T11:08:27.573Z,96880.31
2022-12-25T11:10:57.393Z,96870.22
2022-12-25T11:13:29.077Z,96876.22
2022-12-25T11:16:15.002Z,96867.75
2022-12-25T11:18:48.108Z,96864.63
2022-12-25T11:21:22.335Z,96861.28
2022-12-25T11:23:55.466Z,96864.69
2022-12-25T11:26:21.844Z,96865.59
2022-12-25T11:28:51.152Z,96865.72
2022-12-25T11:31:23.415Z,96853.03
2022-12-25T11:34:05.189Z,96862.34
2022-12-25T11:36:45.523Z,96866.78
2022-12-25T11:39:16.428Z,96860.75
2022-12-25T11:41:43.906Z,96868.47
2022-12-25T11:44:28.542Z,96868.47
2022-12-25T11:46:56.157Z,96870.28
2022-12-25T11:49:23.271Z,96860.09
2022-12-25T11:51:53.621Z,96861.84
2022-12-25T11:54:24.035Z,96838.81
2022-12-25T11:56:52.412Z,96839.72
2022-12-25T11:59:26.371Z,96843.16
2022-12-25T12:01:58.730Z,96833.81
2022-12-25T12:04:42.409Z,96839.84
2022-12-25T12:07:26.650Z,96838.91
2022-12-25T12:10:18.219Z,96837.13
2022-12-25T12:13:04.237Z,96829.50
2022-12-25T12:15:44.050Z,96820.16
2022-12-25T12:18:30.534Z,96821.91
2022-12-25T12:20:58.285Z,96821.09
2022-12-25T12:23:25.371Z,96827.94
2022-12-25T12:25:52.568Z,96829.78
2022-12-25T12:28:26.274Z,96822.97
2022-12-25T12:31:02.349Z,96833.19
2022-12-25T12:33:34.607Z,96832.44
2022-12-25T12:36:03.708Z,96825.66
2022-12-25T12:38:32.198Z,96819.69
2022-12-25T12:41:04.146Z,96823.19
2022-12-25T12:43:48.202Z,96818.97
2022-12-25T12:46:27.681Z,96814.69
2022-12-25T12:49:21.866Z,96810.31
2022-12-25T12:51:49.300Z,96812.78
2022-12-25T12:54:24.212Z,96813.63
2022-12-25T12:57:06.023Z,96796.47
2022-12-25T12:59:44.323Z,96784.44
2022-12-25T13:02:29.368Z,96778.50
2022-12-25T13:05:34.641Z,96770.06
2022-12-25T13:08:27.295Z,96758.97
2022-12-25T13:11:22.315Z,96759.97
2022-12-25T13:13:52.144Z,96756.59
2022-12-25T13:16:36.760Z,96754.09
2022-12-25T13:19:12.029Z,96769.47
2022-12-25T13:21:38.678Z,96764.41
2022-12-25T13:24:17.860Z,96765.34
2022-12-25T13:26:44.246Z,96767.06
2022-12-25T13:29:36.173Z,96758.53
2022-12-25T13:32:05.871Z,96766.94
2022-12-25T13:34:40.819Z,96769.59
2022-12-25T13:37:10.322Z,96774.75
2022-12-25T13:39:39.328Z,96765.41
2022-12-25T13:42:09.352Z,96762.88
2022-12-25T13:44:44.913Z,96762.00
2022-12-25T13:47:22.759Z,96755.97
2022-12-25T13:49:51.147Z,96755.06
2022-12-25T13:52:42.591Z,96740.56
2022-12-25T13:55:11.955Z,96736.22
2022-12-25T13:57:41.525Z,96739.50
2022-12-25T14:00:17.257Z,96742.03
2022-12-25T14:02:45.368Z,96742.78
2022-12-25T14:05:41.361Z,96746.31
2022-12-25T14:08:22.117Z,96746.25
2022-12-25T14:10:52.350Z,96741.94
2022-12-25T14:13:22.472Z,96752.97
2022-12-25T14:15:50.160Z,96762.25
2022-12-25T14:18:18.669Z,96751.22
2022-12-25T14:21:21.569Z,96752.16
2022-12-25T14:23:50.006Z,96752.25
2022-12-25T14:26:20.373Z,96749.84
2022-12-25T14:29:13.944Z,96741.34
2022-12-25T14:31:47.220Z,96733.72
2022-12-25T14:34:18.414Z,96742.13
2022-12-25T14:36:45.390Z,96749.84
2022-12-25T14:39:31.511Z,96765.19
2022-12-25T14:41:58.330Z,96756.63
2022-12-25T14:44:42.670Z,96754.03
2022-12-25T14:47:20.410Z,96746.44
2022-12-25T14:49:48.155Z,96744.72
2022-12-25T14:52:37.305Z,96744.50
2022-12-25T14:55:07.755Z,96737.63
2022-12-25T14:57:39.110Z,96748.56
2022-12-25T15:00:23.670Z,96752.88
2022-12-25T15:02:53.768Z,96763.84
2022-12-25T15:05:24.728Z,96753.63
2022-12-25T15:08:10.166Z,96756.91
2022-12-25T15:13:25.752Z,96759.28
2022-12-25T15:15:57.590Z,96756.59
2022-12-25T15:18:27.485Z,96748.91
2022-12-25T15:20:55.329Z,96758.16
2022-12-25T15:23:22.215Z,96758.94
2022-12-25T15:25:48.728Z,96758.00
2022-12-25T15:28:15.175Z,96741.81
2022-12-25T15:30:41.698Z,96736.72
2022-12-25T15:33:14.754Z,96739.22
2022-12-25T15:35:41.849Z,96722.16
2022-12-25T15:38:09.444Z,96734.13
2022-12-25T15:40:35.947Z,96730.72
2022-12-25T15:43:06.352Z,96732.41
2022-12-25T15:45:38.183Z,96741.78
2022-12-25T15:48:04.770Z,96735.75
2022-12-25T15:50:32.567Z,96730.63
2022-12-25T15:52:58.998Z,96727.19
2022-12-25T15:55:26.679Z,96718.63
2022-12-25T15:57:54.574Z,96719.38
2022-12-25T16:00:23.337Z,96718.50
2022-12-25T16:02:54.360Z,96715.94
2022-12-25T16:05:29.104Z,96720.22
2022-12-25T16:07:56.212Z,96708.25
2022-12-25T16:10:22.942Z,96706.56
2022-12-25T16:12:51.535Z,96707.41
2022-12-25T16:15:19.259Z,96705.72
2022-12-25T16:17:51.626Z,96714.19
2022-12-25T16:20:22.481Z,96724.50
2022-12-25T16:22:51.905Z,96722.72
2022-12-25T16:25:24.497Z,96735.53
2022-12-25T16:28:00.335Z,96734.72
2022-12-25T16:30:27.196Z,96738.97
2022-12-25T16:32:56.849Z,96737.31
2022-12-25T16:35:24.996Z,96725.41
2022-12-25T16:37:59.078Z,96729.69
2022-12-25T16:40:29.513Z,96723.75
2022-12-25T16:42:56.347Z,96722.75
2022-12-25T16:45:26.114Z,96722.78
2022-12-25T16:47:56.746Z,96716.00
2022-12-25T16:50:24.386Z,96714.38
2022-12-25T16:52:56.011Z,96720.25
2022-12-25T16:55:30.370Z,96713.47
2022-12-25T16:57:57.212Z,96710.03
2022-12-25T17:00:24.748Z,96710.84
2022-12-25T17:02:51.667Z,96716.78
2022-12-25T17:05:20.400Z,96715.91
2022-12-25T17:07:49.835Z,96719.25
2022-12-25T17:10:18.697Z,96724.34
2022-12-25T17:12:47.979Z,96723.47
2022-12-25T17:15:15.885Z,96724.28
2022-12-25T17:17:43.300Z,96727.72
2022-12-25T17:20:12.044Z,96725.28
2022-12-25T17:22:42.359Z,96716.69
2022-12-25T17:25:17.051Z,96707.38
2022-12-25T17:27:45.389Z,96698.84
2022-12-25T17:30:17.247Z,96690.28
2022-12-25T17:32:44.364Z,96690.28
2022-12-25T17:35:10.805Z,96686.88
2022-12-25T17:37:37.165Z,96691.09
2022-12-25T17:40:04.149Z,96695.38
2022-12-25T17:42:30.572Z,96693.53
2022-12-25T17:44:57.091Z,96705.47
2022-12-25T17:47:23.505Z,96701.13
2022-12-25T17:49:50.999Z,96715.63
2022-12-25T17:52:17.662Z,96716.47
2022-12-25T17:54:44.111Z,96707.91
2022-12-25T17:57:10.589Z,96707.97
2022-12-25T17:59:36.956Z,96711.25
2022-12-25T18:02:03.514Z,96715.53
2022-12-25T18:04:29.912Z,96714.69
2022-12-25T18:06:56.401Z,96712.03
2022-12-25T18:09:22.832Z,96706.91
2022-12-25T18:11:49.213Z,96704.31
2022-12-25T18:14:16.617Z,96705.09
2022-12-25T18:16:45.057Z,96700.88
2022-12-25T18:19:12.726Z,96697.38
2022-12-25T18:21:39.312Z,96702.44
2022-12-25T18:24:07.190Z,96704.97
2022-12-25T18:26:34.342Z,96705.91
2022-12-25T18:29:00.907Z,96707.56
2022-12-25T18:31:30.131Z,96716.13
2022-12-25T18:33:58.260Z,96704.19
2022-12-25T18:36:25.994Z,96703.25
2022-12-25T18:38:54.036Z,96709.19
2022-12-25T18:41:22.202Z,96693.88
2022-12-25T18:43:52.569Z,96700.69
2022-12-25T18:46:23.885Z,96697.25
2022-12-25T18:48:53.214Z,96702.31
2022-12-25T18:51:19.865Z,96691.28
2022-12-25T18:53:48.767Z,96690.38
2022-12-25T18:56:17.682Z,96692.09
2022-12-25T18:58:45.612Z,96677.66
2022-12-25T19:01:18.760Z,96680.16
2022-12-25T19:03:46.122Z,96687.00
2022-12-25T19:06:21.603Z,96680.91
2022-12-25T19:08:48.554Z,96673.22
2022-12-25T19:11:16.290Z,96674.81
2022-12-25T19:13:43.313Z,96681.59
2022-12-25T19:16:10.133Z,96681.53
2022-12-25T19:18:37.619Z,96696.81
2022-12-25T19:21:06.718Z,96687.34
2022-12-25T19:23:33.443Z,96689.81
2022-12-25T19:26:00.045Z,96703.31
2022-12-25T19:28:26.480Z,96687.09
2022-12-25T19:30:54.077Z,96690.53
2022-12-25T19:33:21.690Z,96689.81
2022-12-25T19:35:48.909Z,96693.88
2022-12-25T19:38:15.823Z,96701.50
2022-12-25T19:40:59.951Z,96710.81
2022-12-25T19:43:32.052Z,96709.16
2022-12-25T19:46:01.863Z,96700.66
2022-12-25T19:48:28.392Z,96699.72
2022-12-25T19:50:54.958Z,96701.41
2022-12-25T19:53:23.674Z,96697.97
2022-12-25T19:55:52.361Z,96704.75
2022-12-25T19:58:20.359Z,96703.75
2022-12-25T20:01:07.324Z,96697.63
2022-12-25T20:03:41.744Z,96692.56
2022-12-25T20:06:19.675Z,96700.97
2022-12-25T20:08:47.461Z,96674.63
2022-12-25T20:11:14.228Z,96673.13
2022-12-25T20:13:40.744Z,96669.72
2022-12-25T20:16:08.996Z,96665.50
2022-12-25T20:18:37.009Z,96656.00
2022-12-25T20:21:06.489Z,96659.28
2022-12-25T20:23:33.497Z,96672.75
2022-12-25T20:26:04.183Z,96680.28
2022-12-25T20:28:32.363Z,96680.16
2022-12-25T20:31:08.829Z,96680.13
2022-12-25T20:33:39.457Z,96663.94
2022-12-25T20:36:09.466Z,96675.78
2022-12-25T20:38:37.251Z,96680.81
2022-12-25T20:41:29.672Z,96681.53
2022-12-25T20:43:58.587Z,96691.69
2022-12-25T20:46:26.191Z,96690.75
2022-12-25T20:48:53.514Z,96709.47
2022-12-25T20:51:27.849Z,96688.91
2022-12-25T20:53:55.388Z,96698.34
2022-12-25T20:56:25.976Z,96696.53
2022-12-25T20:59:00.764Z,96693.13
2022-12-25T21:01:32.201Z,96703.19
2022-12-25T21:03:59.884Z,96706.50
2022-12-25T21:06:28.389Z,96703.19
2022-12-25T21:08:57.878Z,96702.22
2022-12-25T21:11:26.569Z,96693.03
2022-12-25T21:13:54.329Z,96695.59
2022-12-25T21:16:22.758Z,96702.34
2022-12-25T21:18:51.003Z,96698.03
2022-12-25T21:21:17.636Z,96695.50
2022-12-25T21:23:45.444Z,96691.75
2022-12-25T21:26:26.594Z,96700.22
2022-12-25T21:28:57.561Z,96699.47
2022-12-25T21:31:24.751Z,96695.91
2022-12-25T21:33:51.226Z,96706.09
2022-12-25T21:36:24.135Z,96714.38
2022-12-25T21:39:05.251Z,96729.75
2022-12-25T21:41:33.343Z,96732.19
2022-12-25T21:44:00.406Z,96738.09
2022-12-25T21:46:27.925Z,96733.72
2022-12-25T21:48:55.004Z,96728.59
2022-12-25T21:51:46.581Z,96733.63
2022-12-25T21:54:14.468Z,96743.81
2022-12-25T21:56:44.809Z,96754.69
2022-12-25T21:59:17.462Z,96756.28
2022-12-25T22:01:44.742Z,96752.72
2022-12-25T22:04:12.854Z,96768.91
2022-12-25T22:06:58.078Z,96750.19
2022-12-25T22:09:24.825Z,96752.09
2022-12-25T22:12:10.072Z,96757.03
2022-12-25T22:14:56.775Z,96748.44
2022-12-25T22:17:44.157Z,96762.88
2022-12-25T22:20:21.622Z,96765.53
2022-12-25T22:22:48.978Z,96759.47
2022-12-25T22:25:16.877Z,96757.63
2022-12-25T22:27:46.488Z,96745.00
2022-12-25T22:30:16.052Z,96752.44
2022-12-25T22:32:42.936Z,96744.69
2022-12-25T22:35:10.077Z,96731.13
2022-12-25T22:37:36.775Z,96739.69
2022-12-25T22:40:05.825Z,96749.94
2022-12-25T22:42:32.570Z,96752.56
2022-12-25T22:44:59.016Z,96755.09
2022-12-25T22:47:25.468Z,96756.78
2022-12-25T22:49:51.911Z,96761.81
2022-12-25T22:52:18.634Z,96766.78
2022-12-25T22:54:44.991Z,96753.13
2022-12-25T22:57:11.372Z,96759.94
2022-12-25T22:59:37.786Z,96759.06
2022-12-25T23:02:04.305Z,96767.38
2022-12-25T23:04:30.829Z,96753.78
2022-12-25T23:06:57.367Z,96746.97
2022-12-25T23:09:27.616Z,96757.13
2022-12-25T23:11:58.581Z,96751.34
2022-12-25T23:14:41.569Z,96754.84
2022-12-25T23:17:31.570Z,96755.56
2022-12-25T23:20:18.661Z,96762.19
2022-12-25T23:23:05.180Z,96767.25
2022-12-25T23:25:50.609Z,96771.44
2022-12-25T23:28:39.611Z,96776.72
2022-12-25T23:31:06.617Z,96780.00
2022-12-25T23:33:33.145Z,96784.16
2022-12-25T23:35:59.627Z,96788.47
2022-12-25T23:38:25.999Z,96781.72
2022-12-25T23:40:52.681Z,96779.97
2022-12-25T23:43:19.357Z,96781.78
2022-12-25T23:45:45.762Z,96782.44
2022-12-25T23:48:12.157Z,96784.03
2022-12-25T23:50:38.525Z,96786.75
2022-12-25T23:53:04.860Z,96796.16
2022-12-25T23:55:32.850Z,96797.00
2022-12-25T23:57:59.235Z,96798.63
